createdAt,value
2022-10-04T00:00:59.668Z,1021.66
2022-10-04T00:01:59.990Z,1021.67
2022-10-04T00:03:00.065Z,1021.61
2022-10-04T00:04:00.191Z,1021.59
2022-10-04T00:05:00.354Z,1021.63
2022-10-04T00:06:00.529Z,1021.60
2022-10-04T00:07:00.797Z,1021.63
2022-10-04T00:08:00.908Z,1021.66
2022-10-04T00:09:01.052Z,1021.68
2022-10-04T00:10:01.215Z,1021.72
2022-10-04T00:11:01.408Z,1021.70
2022-10-04T00:12:01.592Z,1021.70
2022-10-04T00:13:01.862Z,1021.71
2022-10-04T00:14:01.861Z,1021.70
2022-10-04T00:15:02.039Z,1021.63
2022-10-04T00:16:02.197Z,1021.66
2022-10-04T00:17:02.316Z,1021.64
2022-10-04T00:18:02.618Z,1021.67
2022-10-04T00:19:02.624Z,1021.65
2022-10-04T00:20:02.784Z,1021.66
2022-10-04T00:21:02.944Z,1021.66
2022-10-04T00:22:03.095Z,1021.68
2022-10-04T00:23:03.311Z,1021.72
2022-10-04T00:24:03.433Z,1021.77
2022-10-04T00:25:03.571Z,1021.77
2022-10-04T00:26:03.711Z,1021.79
2022-10-04T00:27:03.859Z,1021.72
2022-10-04T00:28:04.328Z,1021.73
2022-10-04T00:29:04.168Z,1021.72
2022-10-04T00:30:04.313Z,1021.76
2022-10-04T00:31:04.542Z,1021.71
2022-10-04T00:32:04.613Z,1021.69
2022-10-04T00:33:04.972Z,1021.63
2022-10-04T00:34:04.905Z,1021.63
2022-10-04T00:35:05.049Z,1021.66
2022-10-04T00:36:05.187Z,1021.66
2022-10-04T00:37:05.351Z,1021.74
2022-10-04T00:38:05.621Z,1021.77
2022-10-04T00:39:05.643Z,1021.75
2022-10-04T00:40:05.802Z,1021.79
2022-10-04T00:41:05.938Z,1021.73
2022-10-04T00:42:06.082Z,1021.71
2022-10-04T00:43:06.288Z,1021.65
2022-10-04T00:44:06.373Z,1021.67
2022-10-04T00:45:06.524Z,1021.58
2022-10-04T00:46:06.768Z,1021.62
2022-10-04T00:47:06.805Z,1021.62
2022-10-04T00:48:06.975Z,1021.62
2022-10-04T00:49:07.233Z,1021.65
2022-10-04T00:50:07.214Z,1021.58
2022-10-04T00:51:07.356Z,1021.58
2022-10-04T00:52:07.482Z,1021.50
2022-10-04T00:53:07.624Z,1021.54
2022-10-04T00:54:07.793Z,1021.51
2022-10-04T00:55:07.905Z,1021.50
2022-10-04T00:56:08.049Z,1021.46
2022-10-04T00:57:08.201Z,1021.48
2022-10-04T00:58:08.376Z,1021.49
2022-10-04T00:59:08.736Z,1021.50
2022-10-04T01:00:08.725Z,1021.48
2022-10-04T01:01:09.066Z,1021.42
2022-10-04T01:02:09.168Z,1021.41
2022-10-04T01:03:09.233Z,1021.38
2022-10-04T01:04:09.431Z,1021.36
2022-10-04T01:05:09.592Z,1021.39
2022-10-04T01:06:09.731Z,1021.44
2022-10-04T01:07:09.895Z,1021.41
2022-10-04T01:08:10.056Z,1021.42
2022-10-04T01:09:10.296Z,1021.45
2022-10-04T01:10:10.402Z,1021.40
2022-10-04T01:11:10.594Z,1021.38
2022-10-04T01:12:10.741Z,1021.43
2022-10-04T01:13:10.911Z,1021.37
2022-10-04T01:14:11.123Z,1021.35
2022-10-04T01:15:11.410Z,1021.27
2022-10-04T01:16:11.542Z,1021.24
2022-10-04T01:17:11.563Z,1021.20
2022-10-04T01:18:11.736Z,1021.18
2022-10-04T01:19:11.904Z,1021.18
2022-10-04T01:20:12.160Z,1021.20
2022-10-04T01:21:12.253Z,1021.17
2022-10-04T01:22:12.431Z,1021.16
2022-10-04T01:23:12.592Z,1021.12
2022-10-04T01:24:12.752Z,1021.15
2022-10-04T01:25:12.951Z,1021.10
2022-10-04T01:26:13.082Z,1021.12
2022-10-04T01:27:13.258Z,1021.11
2022-10-04T01:28:13.501Z,1021.12
2022-10-04T01:29:13.586Z,1021.11
2022-10-04T01:30:13.866Z,1021.11
2022-10-04T01:31:14.004Z,1021.11
2022-10-04T01:32:14.098Z,1021.13
2022-10-04T01:33:14.237Z,1021.14
2022-10-04T01:34:14.396Z,1021.15
2022-10-04T01:35:14.591Z,1021.16
2022-10-04T01:36:14.722Z,1021.15
2022-10-04T01:37:14.903Z,1021.13
2022-10-04T01:38:15.076Z,1021.11
2022-10-04T01:39:15.188Z,1021.12
2022-10-04T01:40:15.321Z,1021.13
2022-10-04T01:41:15.497Z,1021.11
2022-10-04T01:42:15.592Z,1021.09
2022-10-04T01:43:15.749Z,1021.07
2022-10-04T01:44:15.880Z,1021.09
2022-10-04T01:45:16.008Z,1021.05
2022-10-04T01:46:16.203Z,1021.04
2022-10-04T01:47:16.318Z,1020.99
2022-10-04T01:48:16.451Z,1021.01
2022-10-04T01:49:16.587Z,1020.99
2022-10-04T01:50:16.724Z,1020.99
2022-10-04T01:51:16.900Z,1021.00
2022-10-04T01:52:17.196Z,1021.01
2022-10-04T01:53:17.154Z,1020.96
2022-10-04T01:54:17.294Z,1020.96
2022-10-04T01:55:17.443Z,1020.94
2022-10-04T01:56:17.592Z,1020.96
2022-10-04T01:57:17.851Z,1020.88
2022-10-04T01:58:17.877Z,1020.88
2022-10-04T01:59:18.024Z,1020.87
2022-10-04T02:00:18.160Z,1020.87
2022-10-04T02:01:18.412Z,1020.89
2022-10-04T02:02:18.625Z,1020.87
2022-10-04T02:03:18.619Z,1020.88
2022-10-04T02:04:22.304Z,1020.84
2022-10-04T02:05:18.927Z,1020.80
2022-10-04T02:06:19.339Z,1020.80
2022-10-04T02:07:19.203Z,1020.78
2022-10-04T02:08:19.355Z,1020.78
2022-10-04T02:09:19.508Z,1020.78
2022-10-04T02:10:19.651Z,1020.77
2022-10-04T02:11:19.884Z,1020.74
2022-10-04T02:12:19.966Z,1020.73
2022-10-04T02:13:20.098Z,1020.78
2022-10-04T02:14:20.249Z,1020.76
2022-10-04T02:15:20.398Z,1020.76
2022-10-04T02:16:20.808Z,1020.80
2022-10-04T02:17:20.711Z,1020.75
2022-10-04T02:18:20.893Z,1020.74
2022-10-04T02:19:21.023Z,1020.73
2022-10-04T02:20:21.165Z,1020.74
2022-10-04T02:21:21.366Z,1020.76
2022-10-04T02:22:21.456Z,1020.74
2022-10-04T02:23:21.615Z,1020.71
2022-10-04T02:24:21.792Z,1020.70
2022-10-04T02:25:21.913Z,1020.70
2022-10-04T02:26:22.067Z,1020.67
2022-10-04T02:27:22.251Z,1020.66
2022-10-04T02:28:22.465Z,1020.63
2022-10-04T02:29:22.678Z,1020.63
2022-10-04T02:30:22.668Z,1020.65
2022-10-04T02:31:22.941Z,1020.64
2022-10-04T02:32:22.991Z,1020.59
2022-10-04T02:33:23.195Z,1020.61
2022-10-04T02:34:23.413Z,1020.57
2022-10-04T02:35:23.523Z,1020.54
2022-10-04T02:36:23.689Z,1020.52
2022-10-04T02:37:23.857Z,1020.50
2022-10-04T02:38:24.028Z,1020.50
2022-10-04T02:39:24.482Z,1020.52
2022-10-04T02:40:24.374Z,1020.50
2022-10-04T02:41:24.554Z,1020.54
2022-10-04T02:42:24.730Z,1020.49
2022-10-04T02:43:24.912Z,1020.49
2022-10-04T02:44:25.121Z,1020.49
2022-10-04T02:45:25.353Z,1020.50
2022-10-04T02:46:25.546Z,1020.44
2022-10-04T02:47:25.629Z,1020.44
2022-10-04T02:48:25.833Z,1020.42
2022-10-04T02:49:25.999Z,1020.46
2022-10-04T02:50:26.302Z,1020.48
2022-10-04T02:51:26.365Z,1020.46
2022-10-04T02:52:26.545Z,1020.44
2022-10-04T02:53:26.728Z,1020.45
2022-10-04T02:54:26.937Z,1020.43
2022-10-04T02:55:27.150Z,1020.42
2022-10-04T02:56:27.291Z,1020.40
2022-10-04T02:57:27.466Z,1020.38
2022-10-04T02:58:27.654Z,1020.37
2022-10-04T02:59:27.835Z,1020.39
2022-10-04T03:00:28.111Z,1020.32
2022-10-04T03:01:28.251Z,1020.32
2022-10-04T03:02:29.969Z,1020.32
2022-10-04T03:03:28.552Z,1020.29
2022-10-04T03:04:28.701Z,1020.29
2022-10-04T03:05:28.967Z,1020.27
2022-10-04T03:06:29.045Z,1020.27
2022-10-04T03:07:29.224Z,1020.24
2022-10-04T03:08:29.380Z,1020.22
2022-10-04T03:09:30.127Z,1020.20
2022-10-04T03:10:29.817Z,1020.24
2022-10-04T03:11:29.854Z,1020.20
2022-10-04T03:12:30.021Z,1020.22
2022-10-04T03:13:30.172Z,1020.18
2022-10-04T03:14:30.312Z,1020.16
2022-10-04T03:15:30.676Z,1020.16
2022-10-04T03:16:30.674Z,1020.10
2022-10-04T03:17:30.715Z,1020.14
2022-10-04T03:18:30.845Z,1020.17
2022-10-04T03:19:31.021Z,1020.18
2022-10-04T03:20:31.431Z,1020.22
2022-10-04T03:21:31.286Z,1020.19
2022-10-04T03:22:31.436Z,1020.25
2022-10-04T03:23:31.585Z,1020.24
2022-10-04T03:24:31.736Z,1020.27
2022-10-04T03:25:32.071Z,1020.25
2022-10-04T03:26:32.018Z,1020.22
2022-10-04T03:27:32.167Z,1020.21
2022-10-04T03:28:32.441Z,1020.20
2022-10-04T03:29:32.470Z,1020.16
2022-10-04T03:30:32.823Z,1020.12
2022-10-04T03:31:32.816Z,1020.17
2022-10-04T03:32:32.927Z,1020.19
2022-10-04T03:33:33.077Z,1020.15
2022-10-04T03:34:33.230Z,1020.17
2022-10-04T03:35:33.438Z,1020.16
2022-10-04T03:36:33.539Z,1020.18
2022-10-04T03:37:33.900Z,1020.18
2022-10-04T03:38:33.836Z,1020.20
2022-10-04T03:39:33.993Z,1020.24
2022-10-04T03:40:34.136Z,1020.18
2022-10-04T03:41:34.303Z,1020.17
2022-10-04T03:42:34.506Z,1020.14
2022-10-04T03:43:34.628Z,1020.11
2022-10-04T03:44:34.808Z,1020.11
2022-10-04T03:45:35.019Z,1020.14
2022-10-04T03:46:35.135Z,1020.17
2022-10-04T03:47:35.404Z,1020.11
2022-10-04T03:48:35.476Z,1020.10
2022-10-04T03:49:35.642Z,1020.07
2022-10-04T03:50:35.959Z,1020.09
2022-10-04T03:51:35.994Z,1020.09
2022-10-04T03:52:36.258Z,1020.09
2022-10-04T03:53:36.342Z,1020.08
2022-10-04T03:54:36.515Z,1020.07
2022-10-04T03:55:36.682Z,1020.03
2022-10-04T03:56:36.854Z,1020.05
2022-10-04T03:57:37.062Z,1020.06
2022-10-04T03:58:37.201Z,1020.05
2022-10-04T03:59:37.383Z,1020.04
2022-10-04T04:00:37.562Z,1020.09
2022-10-04T04:01:37.984Z,1020.07
2022-10-04T04:02:40.396Z,1020.08
2022-10-04T04:03:38.014Z,1020.10
2022-10-04T04:04:38.172Z,1020.10
2022-10-04T04:05:38.353Z,1020.12
2022-10-04T04:06:38.554Z,1020.09
2022-10-04T04:07:38.663Z,1020.09
2022-10-04T04:08:38.820Z,1020.08
2022-10-04T04:09:38.971Z,1020.03
2022-10-04T04:10:39.108Z,1020.06
2022-10-04T04:11:39.475Z,1020.03
2022-10-04T04:12:39.401Z,1020.09
2022-10-04T04:13:39.554Z,1020.07
2022-10-04T04:14:39.741Z,1020.08
2022-10-04T04:15:39.871Z,1020.04
2022-10-04T04:16:40.129Z,1020.11
2022-10-04T04:17:40.229Z,1020.13
2022-10-04T04:18:40.439Z,1020.10
2022-10-04T04:19:40.583Z,1020.12
2022-10-04T04:20:40.783Z,1020.17
2022-10-04T04:21:41.408Z,1020.15
2022-10-04T04:22:41.120Z,1020.21
2022-10-04T04:23:41.270Z,1020.17
2022-10-04T04:24:41.416Z,1020.10
2022-10-04T04:25:41.563Z,1020.12
2022-10-04T04:26:41.745Z,1020.14
2022-10-04T04:27:41.861Z,1020.14
2022-10-04T04:28:42.043Z,1020.07
2022-10-04T04:29:42.160Z,1020.10
2022-10-04T04:30:42.318Z,1020.09
2022-10-04T04:31:42.877Z,1020.08
2022-10-04T04:32:42.639Z,1020.06
2022-10-04T04:33:42.810Z,1020.10
2022-10-04T04:34:42.960Z,1020.10
2022-10-04T04:35:43.139Z,1020.09
2022-10-04T04:36:43.425Z,1020.06
2022-10-04T04:37:43.420Z,1020.09
2022-10-04T04:38:43.572Z,1020.10
2022-10-04T04:39:43.723Z,1020.08
2022-10-04T04:40:43.882Z,1020.05
2022-10-04T04:41:49.525Z,1020.06
2022-10-04T04:42:44.282Z,1020.03
2022-10-04T04:43:44.344Z,1020.04
2022-10-04T04:44:44.502Z,1019.98
2022-10-04T04:45:44.705Z,1019.99
2022-10-04T04:46:44.882Z,1020.00
2022-10-04T04:47:45.013Z,1019.99
2022-10-04T04:48:45.143Z,1020.00
2022-10-04T04:49:45.300Z,1019.95
2022-10-04T04:50:45.501Z,1020.00
2022-10-04T04:51:45.780Z,1019.96
2022-10-04T04:52:45.772Z,1019.95
2022-10-04T04:53:45.931Z,1019.92
2022-10-04T04:54:46.111Z,1019.91
2022-10-04T04:56:05.266Z,1019.94
2022-10-04T04:56:46.491Z,1019.96
2022-10-04T04:57:46.626Z,1019.99
2022-10-04T04:58:46.804Z,1020.03
2022-10-04T04:59:47.067Z,1019.99
2022-10-04T05:00:47.211Z,1020.02
2022-10-04T05:01:47.365Z,1019.94
2022-10-04T05:02:47.470Z,1019.93
2022-10-04T05:03:47.629Z,1019.93
2022-10-04T05:04:47.828Z,1019.94
2022-10-04T05:05:47.973Z,1019.96
2022-10-04T05:06:48.109Z,1019.96
2022-10-04T05:07:48.280Z,1019.99
2022-10-04T05:08:48.448Z,1020.02
2022-10-04T05:09:48.768Z,1019.98
2022-10-04T05:10:48.795Z,1020.00
2022-10-04T05:11:48.975Z,1019.95
2022-10-04T05:12:49.157Z,1019.93
2022-10-04T05:13:49.331Z,1019.92
2022-10-04T05:14:49.498Z,1019.89
2022-10-04T05:15:49.646Z,1019.87
2022-10-04T05:16:49.885Z,1019.89
2022-10-04T05:17:50.261Z,1019.86
2022-10-04T05:18:50.181Z,1019.85
2022-10-04T05:19:50.350Z,1019.83
2022-10-04T05:20:50.546Z,1019.83
2022-10-04T05:21:50.695Z,1019.79
2022-10-04T05:22:51.116Z,1019.77
2022-10-04T05:23:51.050Z,1019.80
2022-10-04T05:24:51.213Z,1019.78
2022-10-04T05:25:51.366Z,1019.76
2022-10-04T05:26:51.508Z,1019.79
2022-10-04T05:27:51.737Z,1019.79
2022-10-04T05:28:51.982Z,1019.80
2022-10-04T05:29:51.953Z,1019.75
2022-10-04T05:30:52.105Z,1019.75
2022-10-04T05:31:52.325Z,1019.74
2022-10-04T05:32:52.387Z,1019.78
2022-10-04T05:33:52.602Z,1019.80
2022-10-04T05:34:52.681Z,1019.77
2022-10-04T05:35:52.844Z,1019.73
2022-10-04T05:36:52.962Z,1019.82
2022-10-04T05:37:53.095Z,1019.81
2022-10-04T05:38:53.483Z,1019.74
2022-10-04T05:39:53.392Z,1019.79
2022-10-04T05:40:53.582Z,1019.72
2022-10-04T05:41:53.678Z,1019.70
2022-10-04T05:42:53.798Z,1019.72
2022-10-04T05:43:53.978Z,1019.74
2022-10-04T05:44:54.110Z,1019.74
2022-10-04T05:45:54.320Z,1019.76
2022-10-04T05:46:54.424Z,1019.78
2022-10-04T05:47:54.666Z,1019.79
2022-10-04T05:48:54.739Z,1019.82
2022-10-04T05:49:54.908Z,1019.81
2022-10-04T05:50:55.082Z,1019.85
2022-10-04T05:51:55.285Z,1019.87
2022-10-04T05:52:55.459Z,1019.83
2022-10-04T05:53:55.585Z,1019.81
2022-10-04T05:54:55.948Z,1019.79
2022-10-04T05:55:55.925Z,1019.79
2022-10-04T05:56:56.091Z,1019.74
2022-10-04T05:57:56.255Z,1019.76
2022-10-04T05:58:56.426Z,1019.78
2022-10-04T06:00:00.528Z,1019.73
2022-10-04T06:00:56.865Z,1019.72
2022-10-04T06:01:57.106Z,1019.78
2022-10-04T06:02:57.248Z,1019.79
2022-10-04T06:03:57.307Z,1019.78
2022-10-04T06:04:57.540Z,1019.77
2022-10-04T06:05:57.658Z,1019.75
2022-10-04T06:06:57.859Z,1019.80
2022-10-04T06:07:58.016Z,1019.76
2022-10-04T06:08:58.189Z,1019.82
2022-10-04T06:09:58.428Z,1019.79
2022-10-04T06:10:58.551Z,1019.81
2022-10-04T06:11:58.728Z,1019.79
2022-10-04T06:12:58.904Z,1019.81
2022-10-04T06:13:59.082Z,1019.79
2022-10-04T06:14:59.295Z,1019.76
2022-10-04T06:15:59.435Z,1019.75
2022-10-04T06:16:59.660Z,1019.77
2022-10-04T06:17:59.774Z,1019.76
2022-10-04T06:18:59.930Z,1019.75
2022-10-04T06:20:00.120Z,1019.74
2022-10-04T06:21:00.268Z,1019.78
2022-10-04T06:22:00.412Z,1019.77
2022-10-04T06:23:00.522Z,1019.78
2022-10-04T06:24:00.674Z,1019.78
2022-10-04T06:25:00.822Z,1019.79
2022-10-04T06:26:01.013Z,1019.81
2022-10-04T06:27:01.121Z,1019.81
2022-10-04T06:28:01.324Z,1019.80
2022-10-04T06:29:01.431Z,1019.81
2022-10-04T06:30:01.591Z,1019.75
2022-10-04T06:31:02.127Z,1019.78
2022-10-04T06:32:01.889Z,1019.77
2022-10-04T06:33:02.036Z,1019.79
2022-10-04T06:34:02.177Z,1019.79
2022-10-04T06:35:02.346Z,1019.81
2022-10-04T06:36:02.505Z,1019.83
2022-10-04T06:37:02.825Z,1019.84
2022-10-04T06:38:02.782Z,1019.83
2022-10-04T06:39:04.380Z,1019.84
2022-10-04T06:40:03.108Z,1019.84
2022-10-04T06:41:03.270Z,1019.82
2022-10-04T06:42:03.496Z,1019.89
2022-10-04T06:43:03.597Z,1019.82
2022-10-04T06:44:03.758Z,1019.83
2022-10-04T06:45:03.914Z,1019.83
2022-10-04T06:46:04.151Z,1019.83
2022-10-04T06:47:04.266Z,1019.86
2022-10-04T06:48:04.432Z,1019.85
2022-10-04T06:49:04.556Z,1019.87
2022-10-04T06:50:04.720Z,1019.90
2022-10-04T06:51:04.878Z,1019.87
2022-10-04T06:52:05.028Z,1019.86
2022-10-04T06:53:05.214Z,1019.90
2022-10-04T06:54:05.333Z,1019.91
2022-10-04T06:55:05.445Z,1019.93
2022-10-04T06:56:05.605Z,1019.92
2022-10-04T06:57:05.723Z,1019.91
2022-10-04T06:58:05.891Z,1019.90
2022-10-04T06:59:06.032Z,1019.92
2022-10-04T07:00:06.129Z,1019.98
2022-10-04T07:01:06.287Z,1019.99
2022-10-04T07:02:06.457Z,1020.00
2022-10-04T07:03:06.528Z,1019.98
2022-10-04T07:04:06.691Z,1020.03
2022-10-04T07:05:09.205Z,1019.97
2022-10-04T07:06:06.933Z,1019.98
2022-10-04T07:07:07.074Z,1020.00
2022-10-04T07:08:07.216Z,1019.98
2022-10-04T07:09:07.459Z,1019.97
2022-10-04T07:10:07.532Z,1020.00
2022-10-04T07:11:12.132Z,1020.03
2022-10-04T07:12:07.851Z,1020.05
2022-10-04T07:13:08.009Z,1020.03
2022-10-04T07:14:08.545Z,1020.01
2022-10-04T07:15:08.299Z,1020.04
2022-10-04T07:16:08.498Z,1019.98
2022-10-04T07:17:08.602Z,1020.02
2022-10-04T07:18:08.729Z,1020.07
2022-10-04T07:19:08.896Z,1020.09
2022-10-04T07:20:09.005Z,1020.07
2022-10-04T07:21:09.183Z,1020.03
2022-10-04T07:22:09.328Z,1019.98
2022-10-04T07:23:09.441Z,1019.98
2022-10-04T07:24:09.725Z,1019.98
2022-10-04T07:25:09.731Z,1019.96
2022-10-04T07:26:09.905Z,1019.99
2022-10-04T07:27:10.038Z,1020.01
2022-10-04T07:28:10.255Z,1019.99
2022-10-04T07:29:10.278Z,1019.99
2022-10-04T07:30:10.423Z,1019.97
2022-10-04T07:31:10.627Z,1020.00
2022-10-04T07:32:10.716Z,1020.00
2022-10-04T07:33:10.821Z,1020.02
2022-10-04T07:34:10.956Z,1020.05
2022-10-04T07:35:11.084Z,1020.04
2022-10-04T07:36:11.220Z,1020.05
2022-10-04T07:37:11.374Z,1020.00
2022-10-04T07:38:11.481Z,1020.00
2022-10-04T07:39:11.646Z,1020.01
2022-10-04T07:40:11.760Z,1020.01
2022-10-04T07:41:11.888Z,1020.01
2022-10-04T07:42:12.054Z,1020.04
2022-10-04T07:43:12.170Z,1020.09
2022-10-04T07:44:12.267Z,1020.08
2022-10-04T07:45:12.418Z,1020.04
2022-10-04T07:46:12.635Z,1020.03
2022-10-04T07:47:12.653Z,1020.00
2022-10-04T07:48:12.810Z,1020.01
2022-10-04T07:49:12.901Z,1019.97
2022-10-04T07:50:13.065Z,1019.99
2022-10-04T07:51:13.160Z,1019.99
2022-10-04T07:52:13.279Z,1020.04
2022-10-04T07:53:13.401Z,1020.03
2022-10-04T07:54:13.524Z,1020.05
2022-10-04T07:55:13.715Z,1020.05
2022-10-04T07:56:13.770Z,1020.09
2022-10-04T07:57:13.904Z,1020.07
2022-10-04T07:58:14.042Z,1020.08
2022-10-04T07:59:14.195Z,1020.08
2022-10-04T08:00:14.365Z,1020.12
2022-10-04T08:01:14.489Z,1020.13
2022-10-04T08:02:14.790Z,1020.18
2022-10-04T08:03:14.805Z,1020.18
2022-10-04T08:04:14.897Z,1020.18
2022-10-04T08:05:15.080Z,1020.13
2022-10-04T08:06:15.296Z,1020.10
2022-10-04T08:07:15.369Z,1020.07
2022-10-04T08:08:15.534Z,1020.04
2022-10-04T08:09:15.694Z,1020.08
2022-10-04T08:10:15.898Z,1020.06
2022-10-04T08:11:16.369Z,1020.01
2022-10-04T08:12:16.154Z,1020.00
2022-10-04T08:13:16.311Z,1019.99
2022-10-04T08:14:16.452Z,1020.01
2022-10-04T08:15:16.677Z,1019.98
2022-10-04T08:16:16.829Z,1020.00
2022-10-04T08:17:16.858Z,1019.95
2022-10-04T08:18:16.988Z,1019.98
2022-10-04T08:19:17.130Z,1019.99
2022-10-04T08:20:17.429Z,1019.99
2022-10-04T08:21:17.386Z,1020.02
2022-10-04T08:22:17.518Z,1020.04
2022-10-04T08:23:17.648Z,1020.05
2022-10-04T08:24:17.777Z,1020.03
2022-10-04T08:25:18.079Z,1020.03
2022-10-04T08:26:18.063Z,1020.08
2022-10-04T08:27:18.168Z,1020.06
2022-10-04T08:28:18.373Z,1020.08
2022-10-04T08:29:18.424Z,1020.08
2022-10-04T08:30:18.589Z,1020.06
2022-10-04T08:31:18.759Z,1020.11
2022-10-04T08:32:18.805Z,1020.13
2022-10-04T08:33:18.983Z,1020.13
2022-10-04T08:34:19.098Z,1020.12
2022-10-04T08:35:19.379Z,1020.14
2022-10-04T08:36:19.354Z,1020.15
2022-10-04T08:37:19.485Z,1020.20
2022-10-04T08:38:19.624Z,1020.21
2022-10-04T08:39:19.743Z,1020.17
2022-10-04T08:40:20.024Z,1020.19
2022-10-04T08:41:20.034Z,1020.20
2022-10-04T08:42:20.129Z,1020.16
2022-10-04T08:43:20.252Z,1020.15
2022-10-04T08:44:20.378Z,1020.18
2022-10-04T08:45:20.679Z,1020.14
2022-10-04T08:46:20.698Z,1020.16
2022-10-04T08:47:22.129Z,1020.15
2022-10-04T08:48:20.872Z,1020.13
2022-10-04T08:49:21.005Z,1020.09
2022-10-04T08:50:21.167Z,1020.08
2022-10-04T08:51:21.259Z,1020.09
2022-10-04T08:52:21.393Z,1020.09
2022-10-04T08:53:21.522Z,1020.06
2022-10-04T08:54:21.653Z,1020.08
2022-10-04T08:55:21.812Z,1020.02
2022-10-04T08:56:21.951Z,1020.03
2022-10-04T08:57:22.082Z,1020.04
2022-10-04T08:58:22.189Z,1020.02
2022-10-04T08:59:22.324Z,1020.04
2022-10-04T09:00:22.535Z,1019.99
2022-10-04T09:01:22.679Z,1019.97
2022-10-04T09:02:22.779Z,1019.94
2022-10-04T09:03:24.873Z,1019.93
2022-10-04T09:04:23.012Z,1019.92
2022-10-04T09:05:23.169Z,1019.89
2022-10-04T09:06:23.296Z,1019.90
2022-10-04T09:07:23.384Z,1019.92
2022-10-04T09:08:23.502Z,1019.89
2022-10-04T09:09:23.614Z,1019.87
2022-10-04T09:10:25.258Z,1019.85
2022-10-04T09:11:23.896Z,1019.87
2022-10-04T09:12:24.034Z,1019.88
2022-10-04T09:13:24.315Z,1019.86
2022-10-04T09:14:24.350Z,1019.86
2022-10-04T09:15:24.463Z,1019.87
2022-10-04T09:16:24.722Z,1019.87
2022-10-04T09:17:24.696Z,1019.88
2022-10-04T09:18:24.837Z,1019.85
2022-10-04T09:19:24.915Z,1019.89
2022-10-04T09:20:38.461Z,1019.92
2022-10-04T09:21:25.175Z,1019.94
2022-10-04T09:22:25.267Z,1019.91
2022-10-04T09:23:25.390Z,1019.94
2022-10-04T09:24:25.550Z,1019.93
2022-10-04T09:25:25.698Z,1019.94
2022-10-04T09:26:25.883Z,1019.93
2022-10-04T09:27:53.097Z,1019.94
2022-10-04T09:28:26.187Z,1019.94
2022-10-04T09:29:26.306Z,1019.93
2022-10-04T09:30:26.394Z,1019.93
2022-10-04T09:31:26.633Z,1019.88
2022-10-04T09:32:26.630Z,1019.91
2022-10-04T09:33:26.747Z,1019.90
2022-10-04T09:34:26.861Z,1019.89
2022-10-04T09:35:26.970Z,1019.91
2022-10-04T09:36:27.274Z,1019.90
2022-10-04T09:37:27.255Z,1019.85
2022-10-04T09:38:27.392Z,1019.89
2022-10-04T09:39:31.242Z,1019.85
2022-10-04T09:40:27.685Z,1019.86
2022-10-04T09:41:27.862Z,1019.86
2022-10-04T09:42:28.011Z,1019.84
2022-10-04T09:43:28.101Z,1019.83
2022-10-04T09:44:28.311Z,1019.79
2022-10-04T09:45:28.380Z,1019.79
2022-10-04T09:46:28.668Z,1019.80
2022-10-04T09:47:28.656Z,1019.85
2022-10-04T09:48:28.826Z,1019.77
2022-10-04T09:49:28.913Z,1019.79
2022-10-04T09:50:29.038Z,1019.74
2022-10-04T09:51:29.162Z,1019.77
2022-10-04T09:52:29.276Z,1019.72
2022-10-04T09:53:29.415Z,1019.70
2022-10-04T09:54:29.522Z,1019.71
2022-10-04T09:55:29.601Z,1019.69
2022-10-04T09:56:29.718Z,1019.70
2022-10-04T09:57:29.883Z,1019.69
2022-10-04T09:58:29.968Z,1019.66
2022-10-04T09:59:30.128Z,1019.71
2022-10-04T10:00:30.164Z,1019.66
2022-10-04T10:01:30.289Z,1019.67
2022-10-04T10:02:30.439Z,1019.69
2022-10-04T10:03:30.479Z,1019.72
2022-10-04T10:04:30.637Z,1019.67
2022-10-04T10:05:30.738Z,1019.64
2022-10-04T10:06:30.836Z,1019.64
2022-10-04T10:07:30.953Z,1019.65
2022-10-04T10:08:31.046Z,1019.62
2022-10-04T10:09:31.394Z,1019.64
2022-10-04T10:10:31.263Z,1019.64
2022-10-04T10:11:31.378Z,1019.59
2022-10-04T10:12:31.482Z,1019.58
2022-10-04T10:13:32.236Z,1019.57
2022-10-04T10:14:31.730Z,1019.57
2022-10-04T10:15:31.914Z,1019.58
2022-10-04T10:16:31.947Z,1019.59
2022-10-04T10:17:32.060Z,1019.57
2022-10-04T10:18:32.220Z,1019.53
2022-10-04T10:19:32.255Z,1019.56
2022-10-04T10:20:32.376Z,1019.56
2022-10-04T10:21:32.571Z,1019.57
2022-10-04T10:22:32.584Z,1019.58
2022-10-04T10:23:32.699Z,1019.61
2022-10-04T10:24:32.819Z,1019.57
2022-10-04T10:25:32.935Z,1019.55
2022-10-04T10:26:33.065Z,1019.58
2022-10-04T10:27:33.257Z,1019.59
2022-10-04T10:28:33.308Z,1019.62
2022-10-04T10:29:33.403Z,1019.65
2022-10-04T10:30:33.545Z,1019.64
2022-10-04T10:31:33.780Z,1019.62
2022-10-04T10:32:33.855Z,1019.62
2022-10-04T10:33:33.967Z,1019.67
2022-10-04T10:34:34.337Z,1019.62
2022-10-04T10:35:34.245Z,1019.65
2022-10-04T10:36:34.378Z,1019.67
2022-10-04T10:37:34.525Z,1019.71
2022-10-04T10:38:34.642Z,1019.70
2022-10-04T10:39:34.793Z,1019.73
2022-10-04T10:40:34.892Z,1019.70
2022-10-04T10:41:35.034Z,1019.68
2022-10-04T10:42:35.414Z,1019.71
2022-10-04T10:43:35.309Z,1019.69
2022-10-04T10:44:35.434Z,1019.66
2022-10-04T10:45:35.559Z,1019.68
2022-10-04T10:46:35.804Z,1019.70
2022-10-04T10:47:35.901Z,1019.68
2022-10-04T10:48:35.931Z,1019.64
2022-10-04T10:49:36.044Z,1019.65
2022-10-04T10:50:36.163Z,1019.63
2022-10-04T10:51:36.285Z,1019.65
2022-10-04T10:52:36.426Z,1019.63
2022-10-04T10:53:36.479Z,1019.65
2022-10-04T10:54:36.576Z,1019.64
2022-10-04T10:55:36.670Z,1019.64
2022-10-04T10:56:36.762Z,1019.62
2022-10-04T10:57:36.886Z,1019.61
2022-10-04T10:58:36.966Z,1019.63
2022-10-04T10:59:37.099Z,1019.64
2022-10-04T11:00:37.235Z,1019.57
2022-10-04T11:01:37.442Z,1019.56
2022-10-04T11:02:49.533Z,1019.57
2022-10-04T11:03:37.760Z,1019.61
2022-10-04T11:04:37.754Z,1019.59
2022-10-04T11:05:37.883Z,1019.58
2022-10-04T11:06:38.010Z,1019.58
2022-10-04T11:07:38.172Z,1019.59
2022-10-04T11:08:38.271Z,1019.58
2022-10-04T11:09:38.407Z,1019.56
2022-10-04T11:10:38.531Z,1019.48
2022-10-04T11:11:38.652Z,1019.50
2022-10-04T11:12:38.810Z,1019.47
2022-10-04T11:13:38.955Z,1019.51
2022-10-04T11:14:38.991Z,1019.53
2022-10-04T11:15:39.182Z,1019.51
2022-10-04T11:16:39.212Z,1019.47
2022-10-04T11:17:39.351Z,1019.46
2022-10-04T11:18:39.433Z,1019.49
2022-10-04T11:19:39.568Z,1019.49
2022-10-04T11:20:39.665Z,1019.45
2022-10-04T11:21:39.746Z,1019.49
2022-10-04T11:22:39.882Z,1019.45
2022-10-04T11:23:39.959Z,1019.43
2022-10-04T11:24:40.073Z,1019.43
2022-10-04T11:25:40.178Z,1019.38
2022-10-04T11:26:40.282Z,1019.35
2022-10-04T11:27:40.421Z,1019.34
2022-10-04T11:28:40.533Z,1019.32
2022-10-04T11:29:40.582Z,1019.27
2022-10-04T11:30:40.725Z,1019.28
2022-10-04T11:31:41.143Z,1019.23
2022-10-04T11:32:40.939Z,1019.26
2022-10-04T11:33:41.040Z,1019.26
2022-10-04T11:34:41.171Z,1019.26
2022-10-04T11:35:41.237Z,1019.24
2022-10-04T11:36:41.375Z,1019.25
2022-10-04T11:37:41.459Z,1019.14
2022-10-04T11:38:41.618Z,1019.14
2022-10-04T11:39:44.504Z,1019.12
2022-10-04T11:40:41.835Z,1019.12
2022-10-04T11:41:41.957Z,1019.10
2022-10-04T11:42:42.061Z,1019.08
2022-10-04T11:43:42.391Z,1019.10
2022-10-04T11:44:42.267Z,1019.08
2022-10-04T11:45:42.364Z,1019.08
2022-10-04T11:46:43.049Z,1019.08
2022-10-04T11:47:42.565Z,1019.00
2022-10-04T11:48:42.702Z,1019.03
2022-10-04T11:49:42.776Z,1019.03
2022-10-04T11:50:42.915Z,1018.99
2022-10-04T11:51:43.006Z,1018.98
2022-10-04T11:52:43.134Z,1018.95
2022-10-04T11:53:43.208Z,1018.89
2022-10-04T11:54:43.350Z,1018.89
2022-10-04T11:55:43.434Z,1018.87
2022-10-04T11:56:43.967Z,1018.85
2022-10-04T11:57:43.681Z,1018.86
2022-10-04T11:58:43.795Z,1018.86
2022-10-04T11:59:44.033Z,1018.83
2022-10-04T12:00:44.036Z,1018.82
2022-10-04T12:01:44.154Z,1018.83
2022-10-04T12:02:44.335Z,1018.80
2022-10-04T12:03:44.559Z,1018.81
2022-10-04T12:04:44.655Z,1018.79
2022-10-04T12:05:44.624Z,1018.83
2022-10-04T12:06:45.073Z,1018.82
2022-10-04T12:07:44.914Z,1018.77